createdAt,value
2022-12-06T00:02:25.805Z,13.50
2022-12-06T00:08:28.130Z,18.75
2022-12-06T00:14:31.511Z,13.75
2022-12-06T00:20:34.000Z,13.75
2022-12-06T00:26:39.600Z,15.00
2022-12-06T00:32:42.313Z,15.50
2022-12-06T00:38:44.568Z,16.50
2022-12-06T00:44:48.653Z,16.75
2022-12-06T00:50:52.099Z,16.50
2022-12-06T00:56:54.366Z,14.00
2022-12-06T01:02:58.278Z,16.50
2022-12-06T01:09:04.005Z,13.00
2022-12-06T01:15:06.336Z,15.00
2022-12-06T01:21:17.218Z,16.00
2022-12-06T01:27:19.795Z,14.00
2022-12-06T01:33:22.135Z,13.00
2022-12-06T01:39:24.077Z,11.00
2022-12-06T01:45:29.037Z,14.00
2022-12-06T01:51:32.228Z,13.00
2022-12-06T01:57:36.228Z,11.50
2022-12-06T02:03:40.201Z,10.75
2022-12-06T02:09:45.010Z,11.00
2022-12-06T02:16:13.955Z,8.50
2022-12-06T02:22:55.045Z,7.50
2022-12-06T02:29:01.325Z,7.00
2022-12-06T02:35:16.238Z,4.00
2022-12-06T02:41:38.320Z,5.00
2022-12-06T02:47:43.189Z,6.50
2022-12-06T02:53:49.698Z,5.00
2022-12-06T02:59:55.201Z,5.00
2022-12-06T03:06:04.039Z,6.00
2022-12-06T03:12:08.723Z,0.25
2022-12-06T03:18:20.381Z,7.00
2022-12-06T03:24:25.262Z,5.00
2022-12-06T03:30:30.849Z,4.00
2022-12-06T03:36:33.925Z,4.00
2022-12-06T03:42:36.982Z,3.50
2022-12-06T03:49:15.402Z,5.25
2022-12-06T03:55:18.012Z,7.25
2022-12-06T04:01:20.193Z,5.00
2022-12-06T04:07:23.212Z,8.00
2022-12-06T04:13:25.368Z,8.00
2022-12-06T04:19:27.695Z,10.75
2022-12-06T04:25:34.966Z,8.00
2022-12-06T04:31:59.193Z,7.50
2022-12-06T04:38:21.020Z,7.25
2022-12-06T04:44:24.320Z,8.00
2022-12-06T04:50:26.314Z,7.00
2022-12-06T04:56:29.092Z,9.00
2022-12-06T05:02:31.155Z,9.50
2022-12-06T05:08:34.503Z,6.00
2022-12-06T05:14:36.496Z,10.25
2022-12-06T05:20:38.474Z,10.25
2022-12-06T05:26:40.533Z,9.50
2022-12-06T05:32:42.714Z,10.00
2022-12-06T05:38:51.122Z,10.75
2022-12-06T05:44:53.676Z,11.00
2022-12-06T05:50:55.688Z,10.50
2022-12-06T05:56:57.631Z,11.00
2022-12-06T06:02:59.958Z,11.00
2022-12-06T06:09:03.000Z,11.00
2022-12-06T06:15:07.339Z,11.75
2022-12-06T06:21:10.716Z,14.00
2022-12-06T06:27:12.689Z,11.00
2022-12-06T06:33:15.310Z,14.25
2022-12-06T06:39:18.557Z,13.50
2022-12-06T06:45:25.201Z,13.25
2022-12-06T06:51:31.973Z,14.00
2022-12-06T06:57:36.288Z,14.67
2022-12-06T07:03:40.081Z,14.00
2022-12-06T07:09:42.352Z,15.00
2022-12-06T07:15:45.191Z,13.50
2022-12-06T07:21:47.404Z,12.75
2022-12-06T07:27:50.496Z,14.00
2022-12-06T07:33:56.092Z,12.25
2022-12-06T07:40:01.203Z,14.00
2022-12-06T07:46:03.506Z,15.00
2022-12-06T07:52:07.095Z,17.00
2022-12-06T07:58:11.162Z,20.25
2022-12-06T08:04:14.592Z,17.75
2022-12-06T08:10:16.814Z,15.00
2022-12-06T08:16:20.145Z,17.00
2022-12-06T08:22:22.241Z,22.75
2022-12-06T08:28:24.221Z,18.75
2022-12-06T08:34:26.747Z,21.25
2022-12-06T08:40:28.785Z,18.50
2022-12-06T08:46:32.198Z,20.00
2022-12-06T08:52:34.272Z,20.00
2022-12-06T08:58:39.273Z,22.25
2022-12-06T09:04:41.509Z,25.00
2022-12-06T09:10:44.665Z,25.00
2022-12-06T09:16:46.721Z,28.00
